Time;durP1;ratioP1;P1;durP2;ratioP2;P2;SDS_P1;SDS_P2;PMS_P1;PMS_P2;Temp;Humidity;BMP_temperature;BMP_pressure;BME280_temperature;BME280_humidity;BME280_pressure;Samples;Min_cycle;Max_cycle;Signal;HPM_P1;HPM_P2
2020/12/07 00:01:13;;;;;;;21.67;9.50;;;;;;;-7.42;73.66;101225.73;130208;1093;23211;-66
2020/12/07 00:03:40;;;;;;;27.23;9.87;;;;;;;-7.42;73.48;101233.67;130016;1093;30472;-66
2020/12/07 00:06:08;;;;;;;17.93;8.87;;;;;;;-7.42;73.81;101226.58;130234;1093;23246;-65
2020/12/07 00:08:42;;;;;;;28.40;12.97;;;;;;;-7.42;73.56;101233.67;130113;1092;23261;-66
2020/12/07 00:11:10;;;;;;;20.27;8.93;;;;;;;-7.44;73.74;101238.21;130231;1093;23282;-66
2020/12/07 00:13:38;;;;;;;25.17;10.00;;;;;;;-7.72;73.88;101183.61;130149;1093;23850;-66
2020/12/07 00:16:10;;;;;;;15.13;7.27;;;;;;;-7.52;73.84;101226.34;130180;1093;23286;-66
2020/12/07 00:18:38;;;;;;;13.37;6.40;;;;;;;-7.54;73.90;101230.04;130235;1099;23226;-66
2020/12/07 00:21:08;;;;;;;28.90;11.10;;;;;;;-7.56;74.00;101231.94;130008;1093;23295;-66
2020/12/07 00:23:36;;;;;;;15.53;7.93;;;;;;;-7.58;73.81;101229.38;130228;1098;23510;-66
2020/12/07 00:26:06;;;;;;;22.65;9.10;;;;;;;-7.61;73.99;101226.08;130068;1092;23686;-66
2020/12/07 00:28:34;;;;;;;22.47;8.97;;;;;;;-7.65;73.71;101216.67;130238;1093;23338;-66
2020/12/07 00:31:04;;;;;;;21.90;8.50;;;;;;;-7.70;74.12;101231.98;130122;1099;23181;-65
2020/12/07 00:33:32;;;;;;;18.80;8.10;;;;;;;-7.76;74.06;101227.92;130211;1092;23232;-66
2020/12/07 00:36:00;;;;;;;18.30;7.47;;;;;;;-7.78;73.99;101224.52;130067;1093;23161;-66
2020/12/07 00:38:27;;;;;;;32.03;11.23;;;;;;;-7.77;74.34;101228.02;130251;1093;23192;-66
2020/12/07 00:40:54;;;;;;;18.13;8.13;;;;;;;-7.79;74.47;101224.66;130050;1093;23969;-66
2020/12/07 00:43:22;;;;;;;21.27;9.57;;;;;;;-7.81;74.50;101221.25;130265;1099;23178;-66
2020/12/07 00:45:51;;;;;;;18.70;9.10;;;;;;;-7.82;74.37;101217.76;130050;1093;23173;-66
2020/12/07 00:48:19;;;;;;;27.23;10.53;;;;;;;-7.83;74.20;101210.77;130234;1093;24372;-66
2020/12/07 00:50:46;;;;;;;23.13;9.03;;;;;;;-7.83;74.33;101218.70;130123;1093;23251;-66
2020/12/07 00:53:16;;;;;;;32.97;11.17;;;;;;;-7.84;74.22;101219.65;130204;1093;23733;-66
2020/12/07 00:55:44;;;;;;;16.60;7.00;;;;;;;-7.86;73.84;101216.25;129841;1099;24587;-66
2020/12/07 00:58:12;;;;;;;46.47;17.60;;;;;;;-7.87;74.15;101225.12;130208;1093;23160;-66
2020/12/07 01:00:40;;;;;;;35.53;11.33;;;;;;;-7.89;74.30;101225.22;130063;1093;24041;-66
2020/12/07 01:03:08;;;;;;;27.70;10.90;;;;;;;-7.89;74.06;101213.80;130226;1099;23210;-66
2020/12/07 01:05:35;;;;;;;32.87;12.17;;;;;;;-7.91;74.17;101218.33;130200;1093;23171;-66
2020/12/07 01:08:04;;;;;;;39.70;13.43;;;;;;;-7.93;73.97;101212.28;130127;1093;24057;-66
2020/12/07 01:10:33;;;;;;;21.97;10.27;;;;;;;-7.96;73.81;101215.16;130209;1099;23184;-66
2020/12/07 01:13:00;;;;;;;13.87;7.17;;;;;;;-7.98;73.91;101217.05;129806;1093;23653;-66
2020/12/07 01:15:27;;;;;;;82.33;20.90;;;;;;;-8.01;73.91;101214.59;130234;1099;23167;-66
2020/12/07 01:17:55;;;;;;;23.57;9.73;;;;;;;-8.04;73.66;101207.69;129819;1093;23174;-66
2020/12/07 01:20:22;;;;;;;21.83;8.83;;;;;;;-8.07;73.70;101207.03;130218;1093;23302;-66
2020/12/07 01:22:52;;;;;;;25.13;10.20;;;;;;;-8.12;73.92;101206.50;130111;1099;23168;-66
2020/12/07 01:25:21;;;;;;;19.80;8.47;;;;;;;-8.15;73.86;101204.03;130190;1093;23235;-66
2020/12/07 01:27:49;;;;;;;25.63;9.70;;;;;;;-8.18;74.15;101196.30;130072;1099;23209;-66
2020/12/07 01:30:20;;;;;;;17.43;7.80;;;;;;;-8.21;73.99;101192.89;130208;1093;23164;-66
2020/12/07 01:32:47;;;;;;;26.87;10.33;;;;;;;-8.25;73.98;101201.14;130060;1093;23304;-66
2020/12/07 01:35:15;;;;;;;20.13;8.00;;;;;;;-8.27;74.02;101213.59;130036;1099;23241;-66
2020/12/07 01:37:43;;;;;;;41.53;16.27;;;;;;;-8.29;74.28;101208.41;130096;1093;23167;-66
2020/12/07 01:40:12;;;;;;;29.77;10.77;;;;;;;-8.27;74.25;101225.02;129968;1093;23831;-66
2020/12/07 01:42:40;;;;;;;25.10;9.73;;;;;;;-8.29;74.07;101213.69;130096;1099;23312;-66
2020/12/07 01:45:10;;;;;;;31.07;10.67;;;;;;;-8.30;74.11;101208.50;130224;1093;24266;-58
2020/12/07 01:47:37;;;;;;;22.80;8.67;;;;;;;-8.30;73.74;101211.14;130080;1093;23209;-66
2020/12/07 01:50:11;;;;;;;25.57;10.00;;;;;;;-8.31;74.09;101210.29;130262;1093;23145;-66
2020/12/07 01:52:40;;;;;;;18.27;8.10;;;;;;;-8.30;73.73;101216.42;129763;1093;23225;-66
2020/12/07 01:55:12;;;;;;;17.00;7.57;;;;;;;-8.31;74.10;101209.44;129928;1096;23178;-66
2020/12/07 01:57:49;;;;;;;15.47;7.50;;;;;;;-8.33;73.61;101200.79;129782;1096;23210;-66
2020/12/07 02:00:17;;;;;;;21.60;9.80;;;;;;;-8.35;74.03;101192.95;129942;1093;23191;-66
2020/12/07 02:02:52;;;;;;;16.73;7.03;;;;;;;-8.35;73.59;101200.88;129872;1101;24128;-66
2020/12/07 02:05:23;;;;;;;20.40;8.07;;;;;;;-8.35;73.91;101197.39;129934;1093;23328;-66
2020/12/07 02:08:18;;;;;;;17.53;7.13;;;;;;;-8.36;73.60;101193.05;129907;1096;23305;-66
2020/12/07 02:11:01;;;;;;;17.70;7.92;;;;;;;-8.37;74.01;101192.22;129895;1093;23222;-66
2020/12/07 02:13:29;;;;;;;14.30;6.43;;;;;;;-8.39;73.25;101202.04;129782;1096;23855;-66
2020/12/07 02:15:57;;;;;;;14.50;7.50;;;;;;;-8.42;73.92;101199.58;129918;1101;23209;-66
2020/12/07 02:18:28;;;;;;;14.47;6.77;;;;;;;-8.45;73.52;101207.70;129858;1094;23237;-66
2020/12/07 02:20:57;;;;;;;18.07;7.07;;;;;;;-8.45;73.40;101201.56;129914;1096;23245;-66
2020/12/07 02:23:46;;;;;;;16.63;6.47;;;;;;;-8.50;73.39;101204.48;129923;1100;23237;-66
2020/12/07 02:26:20;;;;;;;14.73;6.30;;;;;;;-8.52;73.26;101218.75;130223;1093;23200;-66
2020/12/07 02:28:50;;;;;;;16.43;6.87;;;;;;;-8.54;73.90;101210.06;130245;1093;23224;-66
2020/12/07 02:31:21;;;;;;;25.07;9.63;;;;;;;-8.54;73.62;101205.63;130189;1099;23219;-66
2020/12/07 02:33:48;;;;;;;15.10;7.47;;;;;;;-8.57;73.40;101200.53;130254;1093;24278;-66
2020/12/07 02:36:18;;;;;;;12.87;6.47;;;;;;;-8.57;73.55;101189.96;130125;1099;23505;-66
2020/12/07 02:38:55;;;;;;;15.23;6.15;;;;;;;-8.57;73.40;101189.96;130276;1098;23204;-66
2020/12/07 02:41:28;;;;;;;18.67;6.97;;;;;;;-8.57;73.72;101197.89;130112;1093;23329;-66
2020/12/07 02:43:58;;;;;;;16.90;7.50;;;;;;;-8.58;73.06;101204.97;130220;1093;23158;-66
2020/12/07 02:46:28;;;;;;;15.37;6.67;;;;;;;-8.57;72.95;101200.53;130091;1093;23162;-66
2020/12/07 02:48:57;;;;;;;15.70;6.33;;;;;;;-8.57;73.12;101205.81;130054;1093;23241;-66
2020/12/07 02:51:27;;;;;;;15.03;6.67;;;;;;;-8.61;72.99;101210.43;130133;1092;23307;-66
2020/12/07 02:53:55;;;;;;;14.10;5.77;;;;;;;-8.62;73.20;101206.09;130244;1093;23165;-66
2020/12/07 02:56:22;;;;;;;15.70;6.07;;;;;;;-8.63;73.31;101211.47;130046;1093;23194;-65
2020/12/07 02:58:53;;;;;;;15.50;6.03;;;;;;;-8.62;72.72;101215.81;130170;1099;23913;-65
2020/12/07 03:01:21;;;;;;;14.70;6.27;;;;;;;-8.64;72.88;101218.54;130064;1093;23182;-64
2020/12/07 03:03:49;;;;;;;22.33;8.43;;;;;;;-8.65;73.07;101218.63;130254;1099;24205;-64
2020/12/07 03:06:16;;;;;;;20.80;8.40;;;;;;;-8.65;72.72;101226.56;130120;1093;23815;-65
2020/12/07 03:08:45;;;;;;;27.80;9.40;;;;;;;-8.67;73.09;101229.32;130209;1093;24220;-65
2020/12/07 03:11:14;;;;;;;14.83;6.50;;;;;;;-8.79;72.62;101211.55;130068;1100;24258;-65
2020/12/07 03:13:42;;;;;;;17.07;6.63;;;;;;;-8.65;72.49;101234.48;130249;1092;23234;-64
2020/12/07 03:16:10;;;;;;;14.97;7.00;;;;;;;-8.64;72.82;101222.97;130066;1093;24122;-65
2020/12/07 03:18:38;;;;;;;12.67;6.03;;;;;;;-8.64;72.43;101218.54;130233;1093;23226;-64
2020/12/07 03:21:14;;;;;;;12.90;6.07;;;;;;;-8.64;72.23;101213.26;130090;1093;23860;-64
2020/12/07 03:23:45;;;;;;;12.40;6.20;;;;;;;-8.63;72.46;101224.67;130243;1098;23241;-64
2020/12/07 03:26:20;;;;;;;16.63;5.77;;;;;;;-8.64;72.06;101210.61;130087;1093;23243;-64
2020/12/07 03:28:48;;;;;;;17.63;7.20;;;;;;;-8.63;72.02;101209.67;130043;1093;23270;-64
2020/12/07 03:31:17;;;;;;;13.43;6.13;;;;;;;-8.64;72.65;101207.97;130245;1092;23177;-64
2020/12/07 03:33:45;;;;;;;10.00;5.17;;;;;;;-8.62;72.55;101210.52;130188;1093;23846;-65
2020/12/07 03:36:13;;;;;;;16.20;6.63;;;;;;;-8.62;72.47;101218.45;130255;1099;23173;-64
2020/12/07 03:38:42;;;;;;;17.97;6.10;;;;;;;-8.63;72.60;101204.39;130089;1093;23243;-65
2020/12/07 03:41:12;;;;;;;9.97;4.47;;;;;;;-8.61;72.72;101199.86;130230;1093;23308;-64
2020/12/07 03:43:44;;;;;;;13.03;5.93;;;;;;;-8.60;72.18;101198.92;130055;1098;24180;-64
2020/12/07 03:46:12;;;;;;;15.03;5.67;;;;;;;-8.61;72.14;101201.66;130015;1093;23170;-65
2020/12/07 03:48:48;;;;;;;11.47;4.80;;;;;;;-8.61;71.92;101202.50;130084;1092;23241;-65
2020/12/07 03:51:16;;;;;;;14.03;5.80;;;;;;;-8.59;72.49;101199.77;130231;1098;23212;-65
2020/12/07 03:53:45;;;;;;;15.87;6.00;;;;;;;-8.58;72.46;101201.47;130082;1093;23249;-64
2020/12/07 03:56:18;;;;;;;11.83;5.40;;;;;;;-8.58;72.37;101196.19;130047;1099;23196;-65
2020/12/07 03:58:46;;;;;;;12.67;5.23;;;;;;;-8.57;71.68;101187.32;130084;1093;23216;-64
2020/12/07 04:01:15;;;;;;;13.97;5.80;;;;;;;-8.59;71.42;101205.06;130023;1093;23195;-64
2020/12/07 04:03:48;;;;;;;14.63;6.10;;;;;;;-8.62;72.15;101210.52;130084;1092;23171;-64
2020/12/07 04:06:29;;;;;;;15.13;7.50;;;;;;;-8.64;71.66;101200.05;130181;1093;23177;-64
2020/12/07 04:08:59;;;;;;;15.23;6.17;;;;;;;-8.63;72.03;101203.54;130066;1093;23181;-65
2020/12/07 04:11:27;;;;;;;16.23;6.50;;;;;;;-8.78;71.63;101184.20;130243;1092;24098;-65
2020/12/07 04:13:55;;;;;;;15.27;6.53;;;;;;;-8.65;71.84;101205.42;130136;1093;24156;-64
2020/12/07 04:16:27;;;;;;;12.20;5.77;;;;;;;-8.65;72.14;101203.63;130214;1093;23172;-65
2020/12/07 04:18:56;;;;;;;11.80;4.63;;;;;;;-8.65;72.48;101200.14;130092;1093;23240;-65
2020/12/07 04:21:23;;;;;;;10.77;5.60;;;;;;;-8.66;72.29;101201.96;130260;1093;24028;-65
2020/12/07 04:23:51;;;;;;;18.13;6.07;;;;;;;-8.65;71.42;101205.42;130141;1093;23170;-64
2020/12/07 04:26:24;;;;;;;11.50;4.83;;;;;;;-8.66;71.62;101199.32;130218;1093;23168;-64
2020/12/07 04:28:51;;;;;;;13.83;5.87;;;;;;;-8.66;71.40;101193.19;130075;1093;23295;-64
2020/12/07 04:31:19;;;;;;;8.90;4.87;;;;;;;-8.64;72.16;101204.48;130261;1099;23229;-65
2020/12/07 04:33:48;;;;;;;13.93;6.77;;;;;;;-8.80;71.72;101175.52;130185;1092;23282;-64
2020/12/07 04:36:16;;;;;;;11.97;5.47;;;;;;;-8.66;71.40;101190.55;128288;1098;23305;-66
2020/12/07 04:38:44;;;;;;;13.15;5.90;;;;;;;-8.67;72.00;101194.13;130198;1093;23315;-65
2020/12/07 04:41:11;;;;;;;12.33;6.23;;;;;;;-8.67;71.20;101186.20;130113;1093;23263;-66
2020/12/07 04:43:39;;;;;;;15.00;5.77;;;;;;;-8.69;72.10;101193.37;130282;1098;23963;-65
2020/12/07 04:46:09;;;;;;;19.13;9.10;;;;;;;-8.69;71.63;101188.09;130097;1093;23161;-65
2020/12/07 04:48:37;;;;;;;32.07;9.27;;;;;;;-8.69;72.02;101190.73;130280;1093;23266;-65
2020/12/07 04:51:07;;;;;;;34.07;10.20;;;;;;;-8.71;72.20;101180.25;129907;1093;23288;-65
2020/12/07 04:53:34;;;;;;;42.47;13.83;;;;;;;-8.72;71.58;101185.63;130168;1093;23279;-65
2020/12/07 04:56:05;;;;;;;47.97;16.87;;;;;;;-8.72;71.59;101172.42;130085;1100;23197;-65
2020/12/07 04:58:35;;;;;;;34.20;11.80;;;;;;;-8.72;71.49;101169.78;129999;1093;23232;-65
2020/12/07 05:01:02;;;;;;;40.33;15.50;;;;;;;-8.75;71.50;101172.59;129841;1093;23187;-65
2020/12/07 05:03:30;;;;;;;23.03;9.73;;;;;;;-8.78;72.08;101160.42;130265;1099;23285;-65
2020/12/07 05:05:59;;;;;;;20.47;6.60;;;;;;;-8.80;71.34;101146.45;130133;1092;23796;-65
2020/12/07 05:08:27;;;;;;;19.53;7.77;;;;;;;-8.81;72.21;101158.00;130249;1093;24135;-65
2020/12/07 05:11:01;;;;;;;17.93;7.20;;;;;;;-8.83;72.18;101153.75;130111;1093;23248;-65
2020/12/07 05:15:56;;;;;;;13.20;6.10;;;;;;;-8.86;71.51;101156.57;130098;1099;23287;-65
2020/12/07 05:18:24;;;;;;;23.20;9.13;;;;;;;-8.86;72.46;101162.70;130165;1093;23220;-65
2020/12/07 05:20:51;;;;;;;39.20;13.10;;;;;;;-8.88;71.75;101156.66;130115;1093;23240;-65
2020/12/07 05:23:18;;;;;;;33.30;11.63;;;;;;;-8.85;72.31;101160.91;130019;1100;23641;-65
2020/12/07 05:25:47;;;;;;;17.03;7.47;;;;;;;-8.86;72.40;101159.21;130109;1093;23329;-65
2020/12/07 05:28:26;;;;;;;33.43;13.80;;;;;;;-8.85;71.51;101163.55;130269;1093;23189;-65
2020/12/07 05:30:54;;;;;;;20.27;6.55;;;;;;;-9.04;71.48;101130.34;130196;1099;24093;-65
2020/12/07 05:33:22;;;;;;;28.13;10.50;;;;;;;-8.89;71.70;101159.39;129931;1092;23865;-65
2020/12/07 05:35:53;;;;;;;19.30;9.13;;;;;;;-8.89;72.44;101164.67;130039;1099;23170;-60
2020/12/07 05:38:20;;;;;;;30.50;11.70;;;;;;;-8.88;72.21;101175.15;130106;1093;23202;-61
2020/12/07 05:40:48;;;;;;;38.57;13.23;;;;;;;-8.89;71.85;101180.52;130260;1093;23235;-60
2020/12/07 05:43:16;;;;;;;28.27;8.90;;;;;;;-8.90;71.81;101169.11;130117;1093;23208;-60
2020/12/07 05:45:43;;;;;;;33.73;12.90;;;;;;;-8.92;71.89;101185.04;129997;1093;24565;-60
2020/12/07 05:48:10;;;;;;;30.67;10.23;;;;;;;-8.93;71.72;101198.33;130113;1093;23824;-60
2020/12/07 05:50:43;;;;;;;26.63;8.90;;;;;;;-8.90;71.33;101186.73;130235;1093;23284;-60
2020/12/07 05:53:11;;;;;;;33.97;11.63;;;;;;;-8.92;71.44;101190.32;130099;1093;24888;-60
2020/12/07 05:57:27;;;;;;;40.10;11.73;;;;;;;-8.92;71.71;101194.75;125608;1093;23346;-61
2020/12/07 05:59:56;;;;;;;26.33;10.57;;;;;;;-8.91;71.80;101201.73;130053;1100;24120;-61
2020/12/07 06:02:23;;;;;;;34.83;12.23;;;;;;;-8.87;71.05;101202.41;129866;1093;23152;-62
2020/12/07 06:04:52;;;;;;;21.93;8.53;;;;;;;-8.90;71.57;101194.66;129983;1093;23281;-62
2020/12/07 06:07:30;;;;;;;31.60;10.90;;;;;;;-8.89;71.78;101201.64;129892;1093;23223;-61
2020/12/07 06:09:58;;;;;;;24.33;8.53;;;;;;;-8.90;71.78;101197.30;129919;1094;23250;-61
2020/12/07 06:12:28;;;;;;;23.50;8.60;;;;;;;-8.93;71.97;101188.63;129951;1100;23868;-61
2020/12/07 06:14:55;;;;;;;25.23;8.83;;;;;;;-8.93;71.44;101201.83;129884;1093;23152;-61
2020/12/07 06:17:24;;;;;;;47.20;15.87;;;;;;;-8.93;71.54;101187.77;129938;1100;23167;-62
2020/12/07 06:19:52;;;;;;;26.03;10.17;;;;;;;-8.92;71.48;101185.04;129859;1100;24597;-61
2020/12/07 06:22:20;;;;;;;29.47;8.90;;;;;;;-8.89;71.14;101185.80;129993;1093;23220;-62
2020/12/07 06:24:48;;;;;;;24.70;8.57;;;;;;;-8.88;72.07;101188.35;129819;1093;23244;-61
2020/12/07 06:27:16;;;;;;;32.00;10.13;;;;;;;-8.86;71.84;101185.63;129960;1101;23208;-62
2020/12/07 06:30:03;;;;;;;30.65;11.30;;;;;;;-8.86;71.67;101182.98;129840;1093;23225;-62
2020/12/07 06:32:51;;;;;;;24.47;9.00;;;;;;;-8.84;71.81;101178.45;129943;1093;23241;-62
2020/12/07 06:35:19;;;;;;;18.67;6.70;;;;;;;-8.80;71.05;101182.62;129557;1093;23134;-61
2020/12/07 06:37:48;;;;;;;26.33;9.03;;;;;;;-8.77;71.84;101187.69;129942;1093;24197;-62
2020/12/07 06:40:17;;;;;;;22.07;8.07;;;;;;;-8.74;71.90;101169.02;129842;1093;23129;-61
2020/12/07 06:42:45;;;;;;;19.30;7.70;;;;;;;-8.71;71.74;101169.69;129967;1093;24197;-62
2020/12/07 06:45:22;;;;;;;21.57;8.47;;;;;;;-8.68;71.15;101179.22;129815;1094;23250;-62
2020/12/07 06:48:05;;;;;;;25.27;8.10;;;;;;;-8.66;71.85;101183.47;129975;1101;23189;-62
2020/12/07 06:50:36;;;;;;;17.00;7.57;;;;;;;-8.71;71.58;101164.41;129841;1093;23483;-62
2020/12/07 06:55:58;;;;;;;16.75;6.95;;;;;;;-8.51;71.11;101175.53;129884;1093;23195;-61
2020/12/07 06:58:36;;;;;;;15.30;6.60;;;;;;;-8.49;71.27;101170.97;129898;1096;24298;-61
2020/12/07 07:01:13;;;;;;;18.87;7.30;;;;;;;-8.45;71.15;101181.27;129819;1093;24380;-61
2020/12/07 07:03:50;;;;;;;18.77;7.60;;;;;;;-8.40;70.99;101178.34;129960;1102;23175;-62
2020/12/07 07:06:19;;;;;;;18.65;7.72;;;;;;;-8.35;71.33;101178.88;129820;1096;23174;-62
2020/12/07 07:08:50;;;;;;;27.87;10.17;;;;;;;-8.31;71.35;101178.57;129946;1096;23294;-62
2020/12/07 07:11:17;;;;;;;18.23;8.20;;;;;;;-8.29;71.35;101174.05;129890;1101;23295;-61
2020/12/07 07:13:48;;;;;;;16.37;7.27;;;;;;;-8.25;71.02;101186.13;129972;1097;23265;-62
2020/12/07 07:16:17;;;;;;;13.97;6.50;;;;;;;-8.22;71.01;101183.27;129815;1101;23305;-63
2020/12/07 07:18:46;;;;;;;22.17;8.93;;;;;;;-8.18;70.86;101181.28;129965;1096;23197;-62
2020/12/07 07:21:14;;;;;;;27.53;8.33;;;;;;;-8.12;70.76;101177.41;129833;1093;23899;-62
2020/12/07 07:23:43;;;;;;;17.00;7.63;;;;;;;-8.10;70.45;101175.52;130001;1101;23210;-62
2020/12/07 07:26:22;;;;;;;15.07;7.73;;;;;;;-8.07;71.00;101176.15;129878;1092;23320;-62
2020/12/07 07:28:51;;;;;;;14.77;6.63;;;;;;;-8.03;70.56;101161.79;129998;1096;23927;-62
2020/12/07 07:31:19;;;;;;;19.60;7.10;;;;;;;-7.97;69.96;101163.20;129860;1100;23292;-61
2020/12/07 07:33:47;;;;;;;31.33;11.47;;;;;;;-7.96;69.72;101178.12;129980;1093;23260;-62
2020/12/07 07:36:25;;;;;;;19.17;6.97;;;;;;;-7.97;69.70;101165.84;129828;1093;23228;-62
2020/12/07 07:38:53;;;;;;;16.33;7.20;;;;;;;-7.93;70.14;101177.91;129970;1093;24516;-62
2020/12/07 07:41:25;;;;;;;17.33;7.47;;;;;;;-7.90;70.18;101173.27;129806;1093;29452;-61
2020/12/07 07:43:54;;;;;;;16.47;6.97;;;;;;;-7.82;69.98;101174.58;130001;1101;23817;-62
2020/12/07 07:46:22;;;;;;;18.23;7.67;;;;;;;-7.77;69.73;101177.75;127636;1096;23376;-62
2020/12/07 07:49:32;;;;;;;15.00;6.83;;;;;;;-7.71;69.68;101172.92;130019;1093;23246;-62
2020/12/07 08:05:58;;;;;;;24.27;8.30;;;;;;;-7.53;68.70;101161.12;129468;1097;24141;-62
2020/12/07 08:17:16;;;;;;;11.97;4.93;;;;;;;-7.38;68.85;101146.02;125783;1096;23479;-61
2020/12/07 08:19:49;;;;;;;15.37;5.60;;;;;;;-7.33;68.42;101145.69;125100;1100;25195;-62
2020/12/07 08:22:18;;;;;;;15.20;6.00;;;;;;;-7.30;67.87;101148.98;125127;1096;26765;-64
2020/12/07 08:25:02;;;;;;;14.17;6.07;;;;;;;-7.27;67.57;101145.28;129413;1096;24060;-64
2020/12/07 08:27:34;;;;;;;15.80;6.13;;;;;;;-7.24;68.04;101147.73;129553;1104;23852;-64
2020/12/07 08:30:07;;;;;;;19.40;7.93;;;;;;;-7.22;67.60;101154.63;129761;1096;23870;-64
2020/12/07 08:32:35;;;;;;;15.73;5.73;;;;;;;-7.18;67.51;101157.88;129905;1095;23188;-64
2020/12/07 08:35:13;;;;;;;18.63;7.13;;;;;;;-7.19;67.96;101142.95;130086;1093;23288;-65
2020/12/07 08:37:44;;;;;;;10.80;5.25;;;;;;;-7.13;66.91;101131.95;130209;1093;23188;-64
2020/12/07 08:40:11;;;;;;;12.33;5.50;;;;;;;-7.09;67.09;101146.68;130120;1093;23225;-64
2020/12/07 08:42:39;;;;;;;18.40;6.60;;;;;;;-7.07;66.99;101138.63;130226;1093;23161;-65
2020/12/07 08:45:10;;;;;;;16.37;6.00;;;;;;;-7.03;67.44;101140.95;130054;1099;23349;-66
2020/12/07 08:47:38;;;;;;;9.00;4.67;;;;;;;-6.96;67.12;101133.44;130250;1098;23180;-64
2020/12/07 08:50:05;;;;;;;12.97;6.17;;;;;;;-6.95;66.86;101137.78;130041;1093;23239;-64
2020/12/07 08:52:33;;;;;;;14.07;5.93;;;;;;;-6.94;66.32;101124.43;130221;1099;24192;-64
2020/12/07 08:55:04;;;;;;;11.83;5.70;;;;;;;-6.91;66.75;101140.09;130150;1093;23836;-64
2020/12/07 08:57:32;;;;;;;15.90;6.17;;;;;;;-6.87;67.14;101133.62;130248;1093;23178;-64
2020/12/07 08:59:59;;;;;;;14.40;5.83;;;;;;;-6.82;66.73;101136.82;130103;1099;23899;-63
2020/12/07 09:02:26;;;;;;;14.10;6.67;;;;;;;-6.81;66.14;101119.97;130209;1092;23161;-63
2020/12/07 09:04:54;;;;;;;14.03;6.43;;;;;;;-6.80;66.60;101129.61;130045;1093;23272;-63
2020/12/07 09:07:21;;;;;;;14.10;6.43;;;;;;;-6.80;66.32;101129.61;130224;1099;24317;-64
2020/12/07 09:09:59;;;;;;;15.98;7.37;;;;;;;-6.81;65.71;101117.32;130100;1092;23151;-64
2020/12/07 09:12:26;;;;;;;13.10;6.47;;;;;;;-6.81;66.06;101119.12;130242;1093;23272;-64
2020/12/07 09:14:54;;;;;;;16.80;6.07;;;;;;;-6.80;66.68;101123.47;130042;1092;23236;-64
2020/12/07 09:17:21;;;;;;;12.83;6.03;;;;;;;-6.76;66.66;101122.27;130252;1093;23187;-64
2020/12/07 09:19:49;;;;;;;14.47;6.57;;;;;;;-6.70;66.17;101119.20;130191;1099;24358;-63
2020/12/07 09:22:16;;;;;;;15.57;6.57;;;;;;;-6.64;66.33;101108.18;130215;1091;23171;-64
2020/12/07 09:24:43;;;;;;;12.80;5.23;;;;;;;-6.56;66.21;101110.27;130245;1099;23133;-66
2020/12/07 09:27:11;;;;;;;9.30;4.70;;;;;;;-6.54;65.72;101106.56;126410;1098;23583;-71
2020/12/07 09:29:52;;;;;;;11.50;4.67;;;;;;;-6.51;65.96;101111.65;125785;1093;23857;-70
2020/12/07 09:32:19;;;;;;;14.03;6.90;;;;;;;-6.46;65.92;101100.69;130106;1092;23190;-72
2020/12/07 09:34:47;;;;;;;14.53;5.90;;;;;;;-6.43;65.27;101105.78;130222;1090;23967;-70
2020/12/07 09:37:16;;;;;;;11.23;5.63;;;;;;;-6.37;65.05;101094.74;130144;1098;23285;-70
2020/12/07 09:39:43;;;;;;;14.03;6.43;;;;;;;-6.31;65.18;101099.58;130292;1090;23226;-70
2020/12/07 09:42:11;;;;;;;35.03;9.73;;;;;;;-6.26;65.94;101091.30;130061;1090;23917;-72
2020/12/07 09:44:38;;;;;;;12.53;6.57;;;;;;;-6.24;65.06;101092.05;130250;1097;23135;-72
2020/12/07 09:47:06;;;;;;;16.07;6.73;;;;;;;-6.24;64.98;101076.98;130163;1090;23145;-72
2020/12/07 09:49:33;;;;;;;15.30;6.50;;;;;;;-6.26;64.23;101086.84;130292;1090;23181;-72
2020/12/07 09:52:01;;;;;;;12.67;6.13;;;;;;;-6.27;64.28;101084.30;130132;1097;23142;-72
2020/12/07 09:54:36;;;;;;;12.50;6.30;;;;;;;-6.28;64.19;101080.80;130268;1090;24551;-72
2020/12/07 09:57:05;;;;;;;13.10;6.40;;;;;;;-6.26;64.34;101073.59;130096;1090;23282;-65
2020/12/07 09:59:34;;;;;;;12.27;6.57;;;;;;;-6.26;65.31;101065.62;130293;1097;23158;-65
2020/12/07 10:02:02;;;;;;;14.27;6.07;;;;;;;-6.32;64.66;101044.84;130119;1090;24187;-65
2020/12/07 10:04:32;;;;;;;18.67;6.23;;;;;;;-6.13;64.52;101068.22;130271;1097;23301;-65
2020/12/07 10:06:59;;;;;;;19.17;5.93;;;;;;;-6.08;65.02;101060.78;130125;1098;23315;-65
2020/12/07 10:09:27;;;;;;;13.47;6.77;;;;;;;-6.06;64.69;101066.83;130255;1090;23229;-65
2020/12/07 10:11:55;;;;;;;14.10;6.43;;;;;;;-6.02;65.13;101051.50;130086;1090;24156;-65
2020/12/07 10:14:22;;;;;;;18.03;6.33;;;;;;;-5.98;64.33;101048.52;130267;1090;23387;-65
2020/12/07 10:16:50;;;;;;;21.43;7.07;;;;;;;-5.89;64.74;101060.23;130228;1090;23293;-65
2020/12/07 10:19:22;;;;;;;15.60;6.23;;;;;;;-5.86;64.94;101050.21;130096;1090;23225;-65
2020/12/07 10:21:57;;;;;;;13.47;6.47;;;;;;;-5.87;63.19;101045.86;130305;1093;23246;-65
2020/12/07 10:24:25;;;;;;;12.10;6.40;;;;;;;-5.88;63.40;101049.47;130185;1090;23132;-65
2020/12/07 10:26:53;;;;;;;22.55;7.00;;;;;;;-5.87;64.36;101045.02;127095;1090;23380;-63
2020/12/07 10:29:27;;;;;;;12.83;6.80;;;;;;;-5.85;64.36;101051.06;130128;1090;23227;-65
2020/12/07 10:31:56;;;;;;;16.67;8.17;;;;;;;-5.84;64.20;101044.79;130318;1098;23163;-64
2020/12/07 10:34:23;;;;;;;16.67;7.50;;;;;;;-5.83;63.29;101041.17;130100;1089;23271;-64
2020/12/07 10:36:54;;;;;;;23.47;7.60;;;;;;;-5.82;63.00;101056.14;130200;1097;23276;-64
2020/12/07 10:39:26;;;;;;;17.30;6.93;;;;;;;-5.80;64.11;101054.22;130121;1090;23250;-64
2020/12/07 10:41:53;;;;;;;14.63;6.30;;;;;;;-5.77;64.02;101044.20;130245;1090;23213;-64
2020/12/07 10:44:21;;;;;;;15.43;7.90;;;;;;;-5.74;63.93;101033.35;130162;1097;24500;-63
2020/12/07 10:46:55;;;;;;;16.77;6.97;;;;;;;-5.69;64.07;101035.66;130249;1090;23480;-64
2020/12/07 10:49:22;;;;;;;13.07;5.93;;;;;;;-5.67;64.00;101028.44;130124;1090;23188;-65
2020/12/07 10:51:50;;;;;;;13.17;6.83;;;;;;;-5.68;62.87;101023.23;130288;1090;23208;-63
2020/12/07 10:54:18;;;;;;;15.20;6.83;;;;;;;-5.67;63.16;101023.13;130147;1090;23169;-64
2020/12/07 10:56:46;;;;;;;18.03;6.37;;;;;;;-5.64;62.50;101009.63;130293;1097;23198;-65
2020/12/07 10:59:13;;;;;;;21.60;7.83;;;;;;;-5.62;62.45;101009.48;130155;1090;23163;-71
2020/12/07 11:01:44;;;;;;;19.77;6.70;;;;;;;-5.62;62.79;101009.48;130272;1090;23243;-71
2020/12/07 11:04:11;;;;;;;27.03;10.13;;;;;;;-5.62;64.19;101012.98;130154;1090;23213;-70
2020/12/07 11:06:44;;;;;;;19.73;7.60;;;;;;;-5.58;62.68;101013.59;130172;1090;23253;-70
2020/12/07 11:09:12;;;;;;;20.77;8.90;;;;;;;-5.55;63.17;101003.59;130115;1091;23144;-69
2020/12/07 11:11:45;;;;;;;16.80;7.23;;;;;;;-5.49;64.17;100999.63;130246;1097;23215;-69
2020/12/07 11:14:13;;;;;;;19.47;8.23;;;;;;;-5.66;64.08;100966.42;130197;1090;23955;-68
2020/12/07 11:16:40;;;;;;;23.13;8.50;;;;;;;-5.43;63.29;100999.98;130244;1097;23325;-68
2020/12/07 11:19:08;;;;;;;17.73;8.70;;;;;;;-5.40;63.29;100994.44;130241;1090;23195;-68
2020/12/07 11:21:36;;;;;;;17.03;7.30;;;;;;;-5.35;62.59;100996.75;130132;1090;23167;-68
2020/12/07 11:24:04;;;;;;;13.00;6.40;;;;;;;-5.32;63.44;100990.32;130290;1090;23784;-70
2020/12/07 11:26:31;;;;;;;19.53;7.07;;;;;;;-5.29;63.01;100987.43;127723;1097;23383;-69
2020/12/07 11:29:00;;;;;;;13.27;6.63;;;;;;;-5.29;62.38;100975.00;130301;1097;23168;-70
2020/12/07 11:31:28;;;;;;;16.47;6.47;;;;;;;-5.27;62.20;100970.41;130154;1090;23279;-70
2020/12/07 11:33:55;;;;;;;15.80;6.63;;;;;;;-5.24;62.18;100969.33;130297;1090;24203;-70
2020/12/07 11:36:23;;;;;;;14.63;6.77;;;;;;;-5.18;62.71;100967.02;130162;1090;23216;-69
2020/12/07 11:44:26;;;;;;;22.10;9.30;;;;;;;-4.99;62.88;100977.88;130275;1097;23239;-69
2020/12/07 11:47:07;;;;;;;18.90;7.13;;;;;;;-4.94;61.32;100976.67;130115;1090;23320;-70
2020/12/07 11:49:34;;;;;;;17.40;6.73;;;;;;;-4.99;62.03;100969.06;130302;1090;23199;-70
2020/12/07 11:52:03;;;;;;;15.33;7.60;;;;;;;-5.03;61.34;100971.11;130211;1090;23202;-67
2020/12/07 11:54:35;;;;;;;19.90;7.80;;;;;;;-5.05;62.51;100962.41;130284;1090;23721;-68